Time;durP1;ratioP1;P1;durP2;ratioP2;P2;SDS_P1;SDS_P2;PMS_P1;PMS_P2;Temp;Humidity;BMP_temperature;BMP_pressure;BME280_temperature;BME280_humidity;BME280_pressure;Samples;Min_cycle;Max_cycle;Signal;HPM_P1;HPM_P2
2023/07/25 00:02:08;;;;;;;10.00;6.40;;;;;;;21.82;55.80;99707.17;108053;1257;71079;-78
2023/07/25 00:04:36;;;;;;;9.60;6.60;;;;;;;21.80;55.84;99699.52;108096;1254;60344;-78
2023/07/25 00:07:04;;;;;;;10.60;6.70;;;;;;;21.77;56.25;99699.38;108035;1257;60893;-78
2023/07/25 00:09:31;;;;;;;9.40;6.50;;;;;;;21.74;56.51;99694.88;107988;1254;73012;-78
2023/07/25 00:11:58;;;;;;;9.20;6.80;;;;;;;21.69;56.62;99698.94;108125;1254;72399;-78
2023/07/25 00:14:25;;;;;;;9.70;6.90;;;;;;;21.64;56.48;99692.08;108041;1254;71049;-78
2023/07/25 00:16:52;;;;;;;11.10;6.80;;;;;;;21.62;56.72;99689.38;108059;1254;62045;-78
2023/07/25 00:19:18;;;;;;;9.20;6.90;;;;;;;21.58;56.80;99687.38;108053;1254;60539;-77
2023/07/25 00:21:45;;;;;;;10.50;6.50;;;;;;;21.55;57.04;99682.86;108065;1254;73949;-77
2023/07/25 00:24:12;;;;;;;8.90;6.40;;;;;;;21.53;57.07;99684.52;108068;1254;72752;-77
2023/07/25 00:26:39;;;;;;;10.30;6.80;;;;;;;21.50;57.18;99681.81;108145;1254;72832;-78
2023/07/25 00:29:06;;;;;;;8.30;6.40;;;;;;;21.48;57.22;99678.75;107889;1255;60409;-77
2023/07/25 00:31:34;;;;;;;9.60;6.90;;;;;;;21.48;57.36;99683.61;108108;1254;60383;-77
2023/07/25 00:34:03;;;;;;;8.10;6.50;;;;;;;21.48;57.40;99679.73;108005;1254;73582;-77
2023/07/25 00:36:30;;;;;;;10.90;6.80;;;;;;;21.46;57.52;99671.86;108028;1254;72581;-77
2023/07/25 00:38:57;;;;;;;8.00;6.30;;;;;;;21.45;57.51;99668.87;108076;1254;73882;-76
2023/07/25 00:41:24;;;;;;;8.30;6.40;;;;;;;21.43;57.57;99666.52;108011;1254;62025;-77
2023/07/25 00:43:51;;;;;;;8.20;6.50;;;;;;;21.42;57.76;99663.90;107945;1254;61476;-76
2023/07/25 00:46:18;;;;;;;8.70;6.20;;;;;;;21.37;57.85;99651.61;108058;1254;73837;-76
2023/07/25 00:48:46;;;;;;;9.10;6.70;;;;;;;21.35;58.07;99649.70;108018;1254;72724;-77
2023/07/25 00:51:14;;;;;;;11.00;7.10;;;;;;;21.32;58.37;99653.71;108021;1254;71393;-78
2023/07/25 00:53:41;;;;;;;10.50;6.80;;;;;;;21.28;58.57;99654.33;107923;1254;61002;-78
2023/07/25 00:56:08;;;;;;;8.70;6.90;;;;;;;21.25;58.55;99654.95;108129;1254;60538;-78
2023/07/25 00:58:35;;;;;;;8.60;6.10;;;;;;;21.21;58.90;99652.60;107873;1254;73890;-78
2023/07/25 01:01:03;;;;;;;8.30;6.50;;;;;;;21.44;58.59;99648.58;108086;1254;71923;-78
2023/07/25 01:03:31;;;;;;;8.90;6.70;;;;;;;21.80;57.33;99648.58;107899;1254;72741;-78
2023/07/25 01:05:58;;;;;;;8.40;6.50;;;;;;;21.20;59.04;99648.91;107649;1254;60722;-77
2023/07/25 01:08:24;;;;;;;7.90;6.50;;;;;;;21.12;59.45;99645.16;107928;1254;60379;-76
2023/07/25 01:10:51;;;;;;;8.30;6.70;;;;;;;21.02;59.74;99645.36;107974;1254;73949;-77
2023/07/25 01:13:18;;;;;;;8.30;6.60;;;;;;;20.93;60.07;99651.97;108053;1254;72653;-76
2023/07/25 01:15:45;;;;;;;9.10;7.20;;;;;;;20.81;60.63;99649.70;107963;1257;73565;-77
2023/07/25 01:18:12;;;;;;;10.50;7.40;;;;;;;20.77;61.07;99650.15;108150;1254;60527;-78
2023/07/25 01:20:39;;;;;;;10.70;7.20;;;;;;;20.72;61.39;99657.39;107893;1254;60528;-78
2023/07/25 01:23:06;;;;;;;7.80;6.40;;;;;;;20.68;61.68;99655.02;107896;1254;73669;-79
2023/07/25 01:25:34;;;;;;;8.80;6.80;;;;;;;20.63;61.77;99660.16;107847;1254;70249;-77
2023/07/25 01:28:02;;;;;;;8.80;6.80;;;;;;;20.59;61.93;99659.50;107935;1259;73181;-77
2023/07/25 01:30:30;;;;;;;9.90;6.70;;;;;;;20.54;62.14;99658.44;107985;1254;62165;-78
2023/07/25 01:32:58;;;;;;;9.10;7.20;;;;;;;20.49;62.48;99655.09;108065;1253;60331;-77
2023/07/25 01:35:25;;;;;;;8.20;6.80;;;;;;;20.45;62.69;99648.77;108013;1254;73697;-77
2023/07/25 01:37:52;;;;;;;9.20;7.10;;;;;;;20.40;62.91;99646.94;107842;1255;71262;-76
2023/07/25 01:40:19;;;;;;;8.40;7.00;;;;;;;20.36;63.24;99644.98;108099;1254;72518;-76
2023/07/25 01:42:46;;;;;;;10.80;7.10;;;;;;;20.33;63.50;99647.05;108019;1254;61791;-78
2023/07/25 01:45:13;;;;;;;11.20;7.50;;;;;;;20.28;63.71;99654.27;108076;1254;60191;-78
2023/07/25 01:47:40;;;;;;;9.10;6.80;;;;;;;20.27;63.79;99655.27;108013;1254;73635;-77
2023/07/25 01:50:08;;;;;;;9.50;7.30;;;;;;;20.20;63.93;99657.14;107946;1254;74321;-78
2023/07/25 01:52:35;;;;;;;8.40;7.00;;;;;;;20.13;64.26;99657.63;108054;1257;72760;-78
2023/07/25 01:55:02;;;;;;;9.10;7.00;;;;;;;20.09;64.42;99650.86;108041;1257;60893;-79
2023/07/25 01:57:29;;;;;;;10.50;7.30;;;;;;;20.09;64.21;99654.98;108055;1253;60203;-77
2023/07/25 02:00:00;;;;;;;10.60;6.70;;;;;;;20.10;64.14;99651.84;107983;1254;72928;-77
2023/07/25 02:02:26;;;;;;;9.60;6.80;;;;;;;20.08;64.07;99647.35;107957;1254;72548;-78
2023/07/25 02:04:54;;;;;;;9.10;7.30;;;;;;;20.05;64.08;99646.31;107992;1254;72639;-77
2023/07/25 02:07:20;;;;;;;10.30;7.00;;;;;;;20.01;64.02;99646.05;107936;1257;60816;-77
2023/07/25 02:09:48;;;;;;;9.10;6.90;;;;;;;19.92;64.25;99651.30;107806;1254;60335;-77
2023/07/25 02:12:15;;;;;;;13.00;7.20;;;;;;;19.84;64.28;99651.21;107913;1254;74368;-77
2023/07/25 02:14:41;;;;;;;9.90;6.90;;;;;;;19.84;64.29;99651.44;108018;1254;72826;-77
2023/07/25 02:17:08;;;;;;;10.00;7.00;;;;;;;19.86;64.23;99646.08;107914;1254;72855;-77
2023/07/25 02:19:36;;;;;;;10.10;7.60;;;;;;;19.81;64.32;99641.83;108052;1254;63054;-77
2023/07/25 02:22:03;;;;;;;10.60;7.10;;;;;;;19.72;64.64;99644.94;107865;1254;61307;-78
2023/07/25 02:24:30;;;;;;;10.50;7.10;;;;;;;19.69;64.61;99648.59;107912;1255;74352;-78
2023/07/25 02:26:57;;;;;;;9.20;6.80;;;;;;;19.68;64.65;99648.32;107914;1254;72025;-78
2023/07/25 02:29:24;;;;;;;10.20;7.00;;;;;;;19.67;64.78;99649.66;108001;1259;72075;-78
2023/07/25 02:31:51;;;;;;;9.80;7.50;;;;;;;19.67;64.85;99650.75;107833;1254;60332;-77
2023/07/25 02:34:17;;;;;;;9.10;7.40;;;;;;;19.65;64.86;99652.02;107938;1254;60266;-78
2023/07/25 02:36:44;;;;;;;11.00;7.70;;;;;;;19.63;64.97;99649.48;107996;1254;72652;-77
2023/07/25 02:39:12;;;;;;;10.30;7.80;;;;;;;19.62;64.94;99649.52;108110;1253;74479;-78
2023/07/25 02:41:38;;;;;;;12.20;7.60;;;;;;;19.62;65.14;99642.67;108029;1254;71258;-78
2023/07/25 02:44:05;;;;;;;10.40;7.60;;;;;;;19.62;65.35;99639.13;108048;1253;61569;-78
2023/07/25 02:46:35;;;;;;;9.10;7.60;;;;;;;19.63;65.48;99634.75;107988;1254;60157;-78
2023/07/25 02:49:02;;;;;;;10.00;7.60;;;;;;;19.66;65.53;99628.58;108069;1253;74745;-77
2023/07/25 02:51:29;;;;;;;12.10;8.20;;;;;;;19.70;65.60;99623.38;107941;1254;72738;-77
2023/07/25 02:53:57;;;;;;;11.20;7.50;;;;;;;19.74;65.70;99621.64;108119;1254;72584;-77
2023/07/25 02:56:26;;;;;;;12.30;7.50;;;;;;;19.79;65.77;99623.18;108018;1257;61803;-77
2023/07/25 02:58:53;;;;;;;10.50;7.20;;;;;;;19.83;65.82;99619.75;107957;1254;61867;-77
2023/07/25 03:01:20;;;;;;;9.80;7.20;;;;;;;19.90;65.70;99624.06;108174;1254;74085;-77
2023/07/25 03:03:47;;;;;;;10.60;7.80;;;;;;;19.97;65.74;99622.40;108099;1254;71257;-78
2023/07/25 03:06:14;;;;;;;9.40;7.60;;;;;;;20.04;65.66;99627.18;108103;1254;72710;-78
2023/07/25 03:08:41;;;;;;;9.40;7.10;;;;;;;20.11;65.64;99624.34;107911;1254;61751;-77
2023/07/25 03:11:08;;;;;;;12.10;7.30;;;;;;;20.19;65.59;99620.80;107964;1257;60273;-77
2023/07/25 03:13:35;;;;;;;10.60;7.50;;;;;;;20.29;65.54;99618.27;108096;1253;74726;-78
2023/07/25 03:16:02;;;;;;;10.20;7.10;;;;;;;20.37;65.56;99621.45;108108;1254;72563;-77
2023/07/25 03:18:30;;;;;;;10.10;7.30;;;;;;;20.45;65.51;99617.17;107773;1254;73634;-77
2023/07/25 03:20:57;;;;;;;9.90;7.10;;;;;;;20.55;65.39;99619.71;107862;1254;62076;-77
2023/07/25 03:23:24;;;;;;;9.80;6.90;;;;;;;20.63;65.26;99618.76;108080;1253;60332;-78
2023/07/25 03:25:50;;;;;;;10.00;7.10;;;;;;;20.72;65.16;99614.58;108014;1257;72926;-77
2023/07/25 03:28:17;;;;;;;10.80;6.80;;;;;;;20.83;65.05;99610.83;108115;1254;72680;-77
2023/07/25 03:30:44;;;;;;;9.70;7.20;;;;;;;20.94;64.74;99605.63;107951;1257;72519;-77
2023/07/25 03:33:11;;;;;;;9.30;7.50;;;;;;;21.04;64.70;99602.30;107923;1254;62128;-78
2023/07/25 03:35:38;;;;;;;10.90;6.80;;;;;;;21.17;64.64;99600.18;108107;1253;60351;-78
2023/07/25 03:38:05;;;;;;;9.90;7.20;;;;;;;21.26;64.52;99597.63;107870;1253;74198;-78
2023/07/25 03:40:32;;;;;;;9.70;7.50;;;;;;;21.39;64.23;99598.34;108119;1254;74002;-78
2023/07/25 03:42:59;;;;;;;9.40;7.50;;;;;;;21.52;64.06;99598.35;108021;1254;72760;-76
2023/07/25 03:45:25;;;;;;;10.80;7.40;;;;;;;21.68;63.74;99600.39;108079;1254;60443;-77
2023/07/25 03:47:53;;;;;;;9.50;7.00;;;;;;;21.80;63.38;99598.64;107984;1254;60344;-77
2023/07/25 03:50:20;;;;;;;8.90;6.90;;;;;;;21.92;62.83;99599.98;107971;1254;73778;-78
2023/07/25 03:52:46;;;;;;;9.00;6.90;;;;;;;22.04;62.53;99594.70;108099;1254;72771;-77
2023/07/25 03:55:13;;;;;;;9.00;6.60;;;;;;;22.13;62.29;99591.24;108087;1254;74317;-78
2023/07/25 03:57:40;;;;;;;11.40;6.80;;;;;;;22.23;62.03;99591.02;108056;1254;60574;-78
2023/07/25 04:00:07;;;;;;;10.10;6.80;;;;;;;22.31;61.71;99586.48;108050;1254;60372;-78
2023/07/25 04:02:40;;;;;;;10.50;7.30;;;;;;;22.39;61.47;99588.13;108089;1253;75175;-78
2023/07/25 04:05:08;;;;;;;9.70;7.60;;;;;;;22.47;61.40;99588.03;107930;1254;72727;-78
2023/07/25 04:07:35;;;;;;;10.10;7.20;;;;;;;22.54;61.16;99594.48;107981;1254;73846;-78
2023/07/25 04:10:02;;;;;;;11.10;6.80;;;;;;;22.59;61.02;99593.48;108000;1254;60508;-76
2023/07/25 04:12:30;;;;;;;8.80;6.70;;;;;;;22.65;60.71;99591.64;108038;1254;60384;-77
2023/07/25 04:14:57;;;;;;;8.80;7.00;;;;;;;22.69;60.71;99587.98;107908;1254;73968;-77
2023/07/25 04:17:24;;;;;;;10.00;6.90;;;;;;;22.69;60.59;99592.48;107970;1256;73311;-77
2023/07/25 04:19:52;;;;;;;9.70;7.20;;;;;;;22.64;60.44;99588.03;108133;1254;72382;-77
2023/07/25 04:22:19;;;;;;;8.60;6.90;;;;;;;22.58;60.35;99588.78;108075;1254;61703;-76
2023/07/25 04:24:46;;;;;;;9.80;7.00;;;;;;;22.58;60.48;99582.26;108011;1254;60349;-76
2023/07/25 04:27:13;;;;;;;8.00;6.90;;;;;;;22.59;60.68;99583.36;108075;1253;74216;-78
2023/07/25 04:29:40;;;;;;;11.30;7.10;;;;;;;22.58;60.74;99582.73;108007;1254;72845;-78
2023/07/25 04:32:07;;;;;;;9.70;7.20;;;;;;;22.56;60.92;99579.98;108058;1253;72409;-78
2023/07/25 04:34:34;;;;;;;7.50;6.60;;;;;;;22.53;61.06;99586.28;108068;1253;61831;-75
2023/07/25 04:37:01;;;;;;;9.60;7.30;;;;;;;22.49;61.02;99583.41;108069;1253;61458;-77
2023/07/25 04:39:28;;;;;;;8.30;6.90;;;;;;;22.46;61.08;99579.79;107981;1257;74598;-78
2023/07/25 04:41:56;;;;;;;11.00;6.80;;;;;;;22.52;61.11;99577.11;107934;1254;71682;-78
2023/07/25 04:44:23;;;;;;;9.20;7.30;;;;;;;22.61;61.21;99573.98;107978;1254;71026;-78
2023/07/25 04:46:50;;;;;;;12.50;8.10;;;;;;;22.70;61.22;99569.73;107990;1254;61560;-77
2023/07/25 04:49:17;;;;;;;10.60;8.40;;;;;;;22.86;61.25;99576.05;107865;1254;61807;-78
2023/07/25 04:51:44;;;;;;;11.60;8.70;;;;;;;23.00;61.11;99582.54;108027;1254;74712;-78
2023/07/25 04:54:11;;;;;;;11.60;8.80;;;;;;;23.12;60.65;99581.17;107999;1254;72700;-76
2023/07/25 04:56:40;;;;;;;13.10;8.50;;;;;;;23.20;60.09;99581.38;108077;1254;72429;-77
2023/07/25 04:59:07;;;;;;;9.10;7.80;;;;;;;23.27;59.95;99577.44;107994;1259;62020;-77
2023/07/25 05:01:34;;;;;;;11.00;7.40;;;;;;;23.36;59.73;99570.26;108027;1254;61430;-77
2023/07/25 05:04:02;;;;;;;10.10;7.40;;;;;;;23.48;59.57;99568.17;108038;1254;74747;-77
2023/07/25 05:06:29;;;;;;;8.70;6.80;;;;;;;23.56;59.26;99562.14;108077;1254;73222;-77
2023/07/25 05:08:56;;;;;;;8.80;6.90;;;;;;;23.67;59.23;99560.10;108038;1254;73837;-75
2023/07/25 05:11:24;;;;;;;8.40;6.60;;;;;;;23.79;59.09;99558.34;108048;1254;61227;-78
2023/07/25 05:13:51;;;;;;;9.60;7.80;;;;;;;23.92;58.77;99554.99;108051;1254;61010;-77
2023/07/25 05:16:18;;;;;;;11.40;7.30;;;;;;;24.06;58.48;99550.95;108084;1254;74466;-78
2023/07/25 05:18:45;;;;;;;8.00;6.50;;;;;;;24.21;58.34;99550.80;108044;1254;73926;-77
2023/07/25 05:21:12;;;;;;;8.90;6.30;;;;;;;24.34;57.68;99552.73;107973;1254;74283;-78
2023/07/25 05:23:40;;;;;;;8.40;7.00;;;;;;;24.45;57.22;99549.59;107892;1257;61816;-79
2023/07/25 05:26:07;;;;;;;8.90;6.70;;;;;;;24.56;56.65;99547.75;108086;1254;62030;-77
2023/07/25 05:28:34;;;;;;;7.70;6.60;;;;;;;24.67;56.80;99543.34;108020;1253;75630;-76
2023/07/25 05:31:03;;;;;;;8.60;6.40;;;;;;;24.82;56.72;99541.34;108114;1254;72816;-77
2023/07/25 05:33:30;;;;;;;8.10;6.50;;;;;;;24.97;56.31;99536.40;108058;1254;73955;-77
2023/07/25 05:36:01;;;;;;;8.70;6.90;;;;;;;25.13;55.76;99537.32;108003;1254;61131;-77
2023/07/25 05:38:28;;;;;;;9.30;6.80;;;;;;;25.27;55.21;99535.23;108058;1254;59817;-77
2023/07/25 05:40:56;;;;;;;7.80;6.90;;;;;;;25.43;55.04;99532.90;108017;1254;75717;-77
2023/07/25 05:43:23;;;;;;;9.40;6.50;;;;;;;25.58;54.38;99531.12;107970;1254;72653;-77
2023/07/25 05:45:49;;;;;;;8.40;6.30;;;;;;;25.68;54.16;99533.04;108080;1253;72689;-78
2023/07/25 05:48:16;;;;;;;7.10;6.10;;;;;;;25.80;53.86;99530.83;107991;1254;61280;-77
2023/07/25 05:50:46;;;;;;;8.40;6.60;;;;;;;25.96;53.72;99527.46;108006;1254;62987;-78
2023/07/25 05:53:13;;;;;;;9.00;6.50;;;;;;;26.14;53.57;99523.85;107917;1254;74506;-77
2023/07/25 05:55:44;;;;;;;8.00;6.30;;;;;;;26.30;53.19;99522.23;108064;1254;72889;-77
2023/07/25 05:58:10;;;;;;;7.00;6.10;;;;;;;26.42;52.51;99520.54;108026;1254;72643;-77
2023/07/25 06:00:38;;;;;;;10.10;6.10;;;;;;;26.52;52.32;99516.28;108073;1254;61104;-79
2023/07/25 06:03:05;;;;;;;9.00;6.70;;;;;;;26.61;51.68;99513.00;107940;1254;61299;-77
2023/07/25 06:05:34;;;;;;;8.40;6.40;;;;;;;26.69;51.23;99510.17;108040;1254;74628;-77
2023/07/25 06:08:01;;;;;;;8.20;6.50;;;;;;;26.79;50.78;99504.54;108151;1253;72578;-77
2023/07/25 06:10:28;;;;;;;9.10;6.40;;;;;;;26.85;50.37;99501.17;108079;1253;72713;-78
2023/07/25 06:12:55;;;;;;;9.60;6.20;;;;;;;26.88;49.82;99503.13;107968;1254;61243;-77
2023/07/25 06:15:22;;;;;;;7.50;6.10;;;;;;;26.94;49.84;99504.22;108007;1254;60948;-78
2023/07/25 06:17:49;;;;;;;8.10;6.00;;;;;;;26.99;49.70;99502.80;108015;1254;74664;-78
2023/07/25 06:20:16;;;;;;;8.40;6.10;;;;;;;27.03;49.82;99505.39;108032;1254;74088;-77
2023/07/25 06:22:43;;;;;;;8.80;6.50;;;;;;;27.11;49.65;99506.63;107979;1254;72427;-77
2023/07/25 06:25:12;;;;;;;8.80;6.30;;;;;;;27.22;49.56;99508.91;107970;1253;61126;-78
2023/07/25 06:27:39;;;;;;;8.80;6.40;;;;;;;27.34;49.29;99508.71;107774;1254;61171;-77
2023/07/25 06:30:07;;;;;;;7.20;6.50;;;;;;;27.43;49.00;99503.44;107987;1254;74681;-78
2023/07/25 06:32:34;;;;;;;9.00;6.80;;;;;;;27.51;48.95;99501.45;108001;1253;73049;-78
2023/07/25 06:35:04;;;;;;;8.00;6.70;;;;;;;27.61;48.80;99499.86;108112;1253;65067;-77
2023/07/25 06:37:35;;;;;;;7.00;6.00;;;;;;;27.74;48.43;99499.02;108133;1253;61269;-77
2023/07/25 06:40:03;;;;;;;8.20;6.30;;;;;;;27.86;48.38;99490.44;107980;1254;61174;-77
2023/07/25 06:42:31;;;;;;;8.20;6.30;;;;;;;27.98;48.38;99487.23;108057;1254;67139;-77
2023/07/25 06:45:00;;;;;;;6.90;6.00;;;;;;;28.09;48.09;99483.95;107968;1254;63931;-77
2023/07/25 06:47:26;;;;;;;7.10;6.30;;;;;;;28.23;47.82;99484.73;107972;1253;62569;-77
2023/07/25 06:49:53;;;;;;;8.00;7.10;;;;;;;28.30;47.92;99484.14;108109;1253;61377;-77
2023/07/25 06:52:21;;;;;;;7.20;6.30;;;;;;;28.30;48.61;99482.41;107976;1254;61176;-77
2023/07/25 06:54:48;;;;;;;10.10;6.60;;;;;;;28.45;49.25;99473.77;108011;1253;64930;-77
2023/07/25 06:57:15;;;;;;;10.00;6.90;;;;;;;28.62;49.24;99474.65;107999;1253;72791;-76
2023/07/25 06:59:43;;;;;;;7.50;6.70;;;;;;;28.75;49.37;99472.42;108030;1254;64076;-76
2023/07/25 07:02:11;;;;;;;7.60;6.50;;;;;;;28.85;49.13;99467.30;107941;1254;61182;-76
2023/07/25 07:04:38;;;;;;;8.80;6.70;;;;;;;28.93;48.88;99463.54;107861;1253;61166;-77
2023/07/25 07:07:06;;;;;;;8.10;6.40;;;;;;;29.02;48.82;99463.08;107911;1257;67285;-77
2023/07/25 07:09:33;;;;;;;9.80;6.90;;;;;;;29.12;48.13;99462.10;107963;1254;63840;-77
2023/07/25 07:12:00;;;;;;;7.20;6.50;;;;;;;29.25;48.28;99453.25;107882;1259;71357;-76
2023/07/25 07:14:27;;;;;;;8.10;6.50;;;;;;;29.39;48.31;99450.18;107959;1253;59185;-77
2023/07/25 07:16:55;;;;;;;8.20;6.90;;;;;;;29.53;47.76;99444.81;107986;1254;59231;-78
2023/07/25 07:19:22;;;;;;;7.30;6.60;;;;;;;29.63;46.86;99443.05;107867;1257;66179;-78
2023/07/25 07:21:49;;;;;;;9.00;6.20;;;;;;;29.72;46.58;99441.99;107945;1254;62658;-77
2023/07/25 07:24:16;;;;;;;11.50;7.70;;;;;;;29.82;46.58;99437.84;107996;1254;62779;-77
2023/07/25 07:26:43;;;;;;;11.20;8.40;;;;;;;29.94;45.95;99434.44;107993;1253;61199;-78
2023/07/25 07:29:11;;;;;;;11.40;9.20;;;;;;;30.06;45.48;99427.66;108813;1253;59176;-78
2023/07/25 07:31:38;;;;;;;12.80;9.10;;;;;;;30.17;44.73;99425.46;108028;1254;66157;-78
2023/07/25 07:34:09;;;;;;;9.20;7.60;;;;;;;30.31;44.59;99423.52;107995;1254;63031;-78
2023/07/25 07:36:36;;;;;;;8.00;6.80;;;;;;;30.45;44.66;99420.92;108134;1254;65022;-78
2023/07/25 07:39:03;;;;;;;7.10;5.80;;;;;;;30.60;44.93;99415.95;107961;1254;61250;-78
2023/07/25 07:41:30;;;;;;;7.30;5.80;;;;;;;30.78;44.92;99407.04;108017;1254;61147;-78
2023/07/25 07:43:57;;;;;;;10.60;5.70;;;;;;;30.96;44.20;99407.29;107980;1253;65859;-78
2023/07/25 07:46:27;;;;;;;7.30;5.40;;;;;;;31.11;43.77;99408.16;107936;1254;65630;-78
2023/07/25 07:48:56;;;;;;;6.80;5.70;;;;;;;31.25;43.47;99413.55;107940;1253;62894;-78
2023/07/25 07:51:24;;;;;;;6.30;4.90;;;;;;;31.41;43.50;99412.54;108028;1254;61128;-79
2023/07/25 07:53:51;;;;;;;7.70;5.60;;;;;;;31.52;43.11;99403.31;108014;1254;61624;-78
2023/07/25 07:56:18;;;;;;;6.70;5.70;;;;;;;32.15;41.75;99399.52;108046;1254;66076;-77
2023/07/25 07:58:45;;;;;;;6.40;5.20;;;;;;;32.53;40.40;99397.58;108029;1254;72236;-76
2023/07/25 08:01:15;;;;;;;6.00;4.80;;;;;;;32.52;40.17;99398.33;107917;1254;65266;-79
2023/07/25 08:03:43;;;;;;;8.50;5.60;;;;;;;32.50;40.17;99397.75;108014;1254;61197;-79
2023/07/25 08:06:10;;;;;;;8.00;5.90;;;;;;;32.54;40.32;99398.91;108023;1253;61161;-78
2023/07/25 08:08:38;;;;;;;9.50;6.70;;;;;;;32.64;40.37;99395.64;107880;1254;67179;-77
2023/07/25 08:11:05;;;;;;;7.90;5.60;;;;;;;32.75;39.66;99395.33;108059;1253;64440;-77
2023/07/25 08:13:31;;;;;;;9.90;6.50;;;;;;;32.84;39.64;99393.83;107943;1254;63882;-76
2023/07/25 08:15:58;;;;;;;11.80;7.50;;;;;;;32.96;39.92;99397.79;107998;1254;61211;-76
2023/07/25 08:18:25;;;;;;;11.80;8.10;;;;;;;33.13;39.91;99399.08;107939;1253;59547;-77
2023/07/25 08:20:56;;;;;;;9.80;6.90;;;;;;;33.28;39.27;99397.82;107917;1254;64579;-75
2023/07/25 08:23:23;;;;;;;10.50;7.40;;;;;;;33.41;38.90;99398.40;108047;1257;63947;-74
2023/07/25 08:25:50;;;;;;;10.50;7.10;;;;;;;33.52;38.71;99399.14;107796;1254;63908;-77
2023/07/25 08:28:17;;;;;;;10.80;8.60;;;;;;;33.54;38.46;99393.36;107969;1254;61913;-76
2023/07/25 08:30:44;;;;;;;10.40;7.60;;;;;;;33.57;38.32;99387.02;108026;1253;61151;-75
2023/07/25 08:33:19;;;;;;;7.80;6.60;;;;;;;33.59;38.03;99380.88;108088;1254;66963;-76
2023/07/25 08:35:46;;;;;;;15.40;8.70;;;;;;;33.61;38.27;99379.88;107983;1254;63854;-76
2023/07/25 08:38:16;;;;;;;9.70;7.10;;;;;;;33.57;38.40;99377.92;108067;1254;67485;-75
2023/07/25 08:40:43;;;;;;;10.00;5.60;;;;;;;33.54;37.97;99376.92;108069;1255;60539;-75
2023/07/25 08:43:11;;;;;;;7.60;6.10;;;;;;;33.49;38.22;99375.95;107987;1254;61246;-75
2023/07/25 08:45:40;;;;;;;8.60;5.90;;;;;;;33.44;38.19;99373.57;107917;1254;67037;-76
2023/07/25 08:48:10;;;;;;;7.70;6.20;;;;;;;33.36;38.38;99372.62;108019;1254;62693;-74
2023/07/25 08:50:37;;;;;;;9.10;5.90;;;;;;;33.32;38.90;99374.23;108056;1254;62560;-75
2023/07/25 08:53:11;;;;;;;7.70;6.20;;;;;;;33.37;39.22;99370.54;108040;1254;61266;-73
2023/07/25 08:55:38;;;;;;;7.50;5.70;;;;;;;33.53;38.78;99368.65;108005;1254;61179;-73
2023/07/25 08:58:05;;;;;;;8.70;6.40;;;;;;;33.71;37.60;99363.35;107897;1254;67066;-75
2023/07/25 09:00:34;;;;;;;8.10;5.90;;;;;;;33.79;36.03;99359.05;108049;1256;62988;-74
2023/07/25 09:03:01;;;;;;;9.50;6.30;;;;;;;33.88;35.79;99359.79;108046;1253;65367;-74
2023/07/25 09:05:29;;;;;;;7.70;6.30;;;;;;;34.00;34.55;99354.91;108022;1254;61263;-74
2023/07/25 09:07:59;;;;;;;9.60;6.00;;;;;;;34.09;33.82;99358.13;107744;1254;61139;-74
2023/07/25 09:10:27;;;;;;;7.90;5.50;;;;;;;34.18;33.48;99357.78;108031;1253;67223;-74
2023/07/25 09:12:54;;;;;;;6.60;5.70;;;;;;;34.30;33.21;99352.81;107899;1254;64141;-74
2023/07/25 09:15:21;;;;;;;6.80;5.30;;;;;;;34.44;32.88;99353.36;107970;1254;63455;-74
2023/07/25 09:17:49;;;;;;;6.70;5.60;;;;;;;34.57;32.86;99353.43;107862;1254;61087;-74
2023/07/25 09:20:16;;;;;;;7.80;6.30;;;;;;;34.65;32.37;99351.70;107991;1254;61198;-73
2023/07/25 09:22:46;;;;;;;6.60;5.70;;;;;;;34.76;32.71;99348.27;107932;1254;65781;-74
2023/07/25 09:25:14;;;;;;;7.00;5.70;;;;;;;34.86;32.78;99337.92;107909;1254;63824;-74
2023/07/25 09:27:45;;;;;;;8.20;5.90;;;;;;;34.96;32.27;99334.63;108120;1254;64120;-73
2023/07/25 09:30:13;;;;;;;8.50;5.70;;;;;;;34.93;31.98;99335.06;108020;1254;61215;-73
2023/07/25 09:32:46;;;;;;;7.30;5.70;;;;;;;34.88;31.94;99331.83;108091;1254;61138;-74
2023/07/25 09:35:13;;;;;;;7.80;6.00;;;;;;;34.86;32.17;99330.09;107893;1254;65710;-74
2023/07/25 09:37:41;;;;;;;8.40;6.20;;;;;;;34.90;32.56;99330.83;108025;1254;65266;-75
2023/07/25 09:40:09;;;;;;;8.30;6.10;;;;;;;34.92;32.08;99325.98;108069;1254;65248;-74
2023/07/25 09:42:41;;;;;;;6.80;5.30;;;;;;;34.86;31.77;99326.39;108044;1254;61266;-76
2023/07/25 09:45:11;;;;;;;6.60;5.60;;;;;;;34.80;31.49;99326.27;108138;1254;61130;-74
2023/07/25 09:47:40;;;;;;;7.50;5.80;;;;;;;34.74;31.43;99324.04;107895;1254;67086;-75
2023/07/25 09:50:07;;;;;;;10.00;5.90;;;;;;;34.70;31.72;99318.30;108082;1254;64149;-76
2023/07/25 09:52:41;;;;;;;9.10;6.00;;;;;;;34.68;32.32;99311.73;107948;1257;63925;-76
2023/07/25 09:55:08;;;;;;;7.00;5.50;;;;;;;34.45;33.13;99309.70;108110;1254;61221;-77
2023/07/25 09:57:42;;;;;;;6.80;5.80;;;;;;;34.04;33.83;99303.48;108150;1254;61132;-75
2023/07/25 10:00:10;;;;;;;7.80;5.90;;;;;;;34.02;34.49;99304.34;108068;1253;64604;-76
2023/07/25 10:02:37;;;;;;;7.10;6.20;;;;;;;34.13;34.61;99306.80;108142;1254;63021;-75
2023/07/25 10:05:05;;;;;;;8.70;6.30;;;;;;;34.29;34.07;99305.75;107853;1254;64921;-74
2023/07/25 10:07:32;;;;;;;7.00;6.30;;;;;;;34.39;33.37;99304.74;107831;1257;60674;-75
2023/07/25 10:09:59;;;;;;;8.00;5.70;;;;;;;34.47;33.01;99302.00;107967;1254;61237;-75
2023/07/25 10:12:26;;;;;;;7.80;6.30;;;;;;;34.53;32.75;99304.35;107906;1254;65869;-77
2023/07/25 10:14:55;;;;;;;7.40;5.60;;;;;;;34.62;32.74;99297.14;108075;1254;64278;-75
2023/07/25 10:17:24;;;;;;;6.60;5.90;;;;;;;34.73;32.77;99299.73;107969;1254;62594;-76
2023/07/25 10:19:52;;;;;;;7.60;6.10;;;;;;;34.83;32.59;99302.38;108129;1254;61100;-75
2023/07/25 10:22:32;;;;;;;7.80;6.00;;;;;;;34.90;32.23;99302.93;108040;1254;60440;-76
2023/07/25 10:24:59;;;;;;;8.00;6.40;;;;;;;34.92;32.39;99301.50;108112;1254;65562;-75
2023/07/25 10:27:26;;;;;;;9.40;6.40;;;;;;;34.95;32.45;99304.72;108076;1254;64253;-75
2023/07/25 10:29:53;;;;;;;8.20;5.80;;;;;;;34.98;32.02;99303.16;107976;1254;63990;-75
2023/07/25 10:32:22;;;;;;;9.30;6.20;;;;;;;34.99;31.57;99299.90;108010;1256;61212;-75
2023/07/25 10:34:59;;;;;;;8.50;6.60;;;;;;;34.97;30.90;99293.06;108156;1254;61102;-74
2023/07/25 10:37:28;;;;;;;8.30;6.80;;;;;;;34.92;30.55;99296.73;108023;1258;66016;-75
2023/07/25 10:40:23;;;;;;;11.70;6.90;;;;;;;34.89;31.02;99293.59;108083;1254;63919;-75
2023/07/25 10:42:51;;;;;;;9.40;7.30;;;;;;;34.89;31.01;99292.48;108069;1254;64208;-75
2023/07/25 10:45:29;;;;;;;9.00;7.00;;;;;;;34.90;30.95;99290.38;108038;1254;61194;-75
2023/07/25 10:47:59;;;;;;;9.20;7.00;;;;;;;34.82;31.21;99284.91;108039;1254;61132;-75
2023/07/25 10:50:46;;;;;;;8.10;7.10;;;;;;;34.77;31.47;99285.23;108092;1257;75983;-74
2023/07/25 10:53:14;;;;;;;7.50;6.50;;;;;;;34.71;31.88;99282.76;107951;1254;64120;-76
2023/07/25 10:56:04;;;;;;;9.20;7.40;;;;;;;34.67;32.27;99287.20;108061;1257;62666;-75
2023/07/25 10:59:00;;;;;;;9.20;7.70;;;;;;;34.64;32.54;99282.30;108061;1253;61213;-75
2023/07/25 11:01:46;;;;;;;9.90;7.70;;;;;;;34.65;33.03;99276.84;108079;1253;60990;-77
2023/07/25 11:04:25;;;;;;;9.60;7.50;;;;;;;34.66;33.32;99268.15;108092;1254;65880;-76
2023/07/25 11:06:54;;;;;;;9.80;7.30;;;;;;;34.68;33.69;99268.71;108059;1257;64283;-76
2023/07/25 11:09:21;;;;;;;10.50;8.40;;;;;;;34.71;34.15;99269.92;108147;1254;64066;-75
2023/07/25 11:11:51;;;;;;;9.30;7.70;;;;;;;34.67;33.36;99267.16;108098;1254;61222;-75
2023/07/25 11:14:19;;;;;;;9.10;7.90;;;;;;;34.57;33.52;99258.88;108036;1256;60088;-75
2023/07/25 11:16:48;;;;;;;12.20;8.40;;;;;;;34.53;33.73;99252.85;107978;1254;67224;-74
2023/07/25 11:19:15;;;;;;;9.00;8.10;;;;;;;34.49;34.09;99252.36;108038;1257;63824;-75
2023/07/25 11:21:44;;;;;;;9.20;8.10;;;;;;;34.40;33.95;99246.56;108099;1254;64020;-75
2023/07/25 11:24:13;;;;;;;9.30;8.20;;;;;;;34.34;34.42;99247.58;108108;1254;61348;-75
2023/07/25 11:26:43;;;;;;;10.50;8.60;;;;;;;34.34;34.50;99242.18;107992;1254;61133;-76
2023/07/25 11:29:12;;;;;;;;;;;;;;;34.37;34.67;99240.10;107946;1254;66994;-75